Time;durP1;ratioP1;P1;durP2;ratioP2;P2;SDS_P1;SDS_P2;PMS_P1;PMS_P2;Temp;Humidity;BMP_temperature;BMP_pressure;BME280_temperature;BME280_humidity;BME280_pressure;Samples;Min_cycle;Max_cycle;Signal;HPM_P1;HPM_P2
2022/07/30 00:02:05;;;;;;;6.00;4.10;;;;;;;;;;5091150;27;20070;-86
2022/07/30 00:04:31;;;;;;;5.80;3.90;;;;;;;;;;5087261;28;20043;-85
2022/07/30 00:06:57;;;;;;;6.35;4.60;;;;;;;;;;5102205;28;20580;-83
2022/07/30 00:09:23;;;;;;;5.60;3.85;;;;;;;;;;5091738;28;20032;-84
2022/07/30 00:11:48;;;;;;;4.85;3.97;;;;;;;;;;5099289;28;20488;-86
2022/07/30 00:14:13;;;;;;;4.45;3.72;;;;;;;;;;5094025;28;20500;-84
2022/07/30 00:16:39;;;;;;;5.35;4.28;;;;;;;;;;5092184;28;20043;-83
2022/07/30 00:19:04;;;;;;;5.13;3.97;;;;;;;;;;5094633;28;20028;-86
2022/07/30 00:21:30;;;;;;;7.53;4.22;;;;;;;;;;5086375;28;20032;-85
2022/07/30 00:23:55;;;;;;;6.10;3.90;;;;;;;;;;5093135;28;20028;-85
2022/07/30 00:26:20;;;;;;;7.72;3.95;;;;;;;;;;5094813;28;20111;-83
2022/07/30 00:28:46;;;;;;;6.82;3.80;;;;;;;;;;5094862;28;20020;-84
2022/07/30 00:31:11;;;;;;;8.15;3.83;;;;;;;;;;5096681;28;20024;-87
2022/07/30 00:33:36;;;;;;;3.97;3.33;;;;;;;;;;5097349;28;20024;-85
2022/07/30 00:36:02;;;;;;;4.68;3.63;;;;;;;;;;5103471;28;20108;-86
2022/07/30 00:38:27;;;;;;;3.50;3.20;;;;;;;;;;5090191;28;20036;-86
2022/07/30 00:40:53;;;;;;;3.58;3.28;;;;;;;;;;5110535;28;20035;-84
2022/07/30 00:43:19;;;;;;;5.35;3.60;;;;;;;;;;5095605;28;20027;-86
2022/07/30 00:45:45;;;;;;;5.13;3.55;;;;;;;;;;5101197;28;20706;-85
2022/07/30 00:48:12;;;;;;;3.72;3.33;;;;;;;;;;5104262;28;20221;-87
2022/07/30 00:50:37;;;;;;;5.65;3.33;;;;;;;;;;5087122;28;20082;-84
2022/07/30 00:53:04;;;;;;;7.95;3.33;;;;;;;;;;5088199;28;20024;-84
2022/07/30 00:55:30;;;;;;;4.80;3.67;;;;;;;;;;5092595;28;20044;-86
2022/07/30 00:57:55;;;;;;;5.70;3.22;;;;;;;;;;5092022;28;20067;-83
2022/07/30 01:00:21;;;;;;;6.15;3.38;;;;;;;;;;5105202;28;20051;-85
2022/07/30 01:02:46;;;;;;;4.55;3.17;;;;;;;;;;5098830;28;20034;-85
2022/07/30 01:05:12;;;;;;;4.20;3.30;;;;;;;;;;5095127;28;20045;-85
2022/07/30 01:07:37;;;;;;;4.93;3.30;;;;;;;;;;5098051;28;20035;-87
2022/07/30 01:10:05;;;;;;;4.65;3.20;;;;;;;;;;5097970;28;20072;-84
2022/07/30 01:12:32;;;;;;;3.45;2.80;;;;;;;;;;5091887;28;20111;-84
2022/07/30 01:15:00;;;;;;;3.95;3.05;;;;;;;;;;5092096;28;20020;-83
2022/07/30 01:17:25;;;;;;;6.57;3.35;;;;;;;;;;5094702;28;20132;-86
2022/07/30 01:19:57;;;;;;;4.18;3.00;;;;;;;;;;5095594;28;20275;-87
2022/07/30 01:22:29;;;;;;;3.83;3.05;;;;;;;;;;5099137;28;20058;-82
2022/07/30 01:25:25;;;;;;;4.22;2.92;;;;;;;;;;5104314;28;20035;-86
2022/07/30 01:28:04;;;;;;;4.05;2.97;;;;;;;;;;5083025;28;20033;-84
2022/07/30 01:30:32;;;;;;;4.68;2.90;;;;;;;;;;5093690;28;20015;-84
2022/07/30 01:32:58;;;;;;;4.38;2.83;;;;;;;;;;5097473;28;20481;-85
2022/07/30 01:35:27;;;;;;;6.88;3.40;;;;;;;;;;5091003;28;20031;-81
2022/07/30 01:37:54;;;;;;;5.32;2.70;;;;;;;;;;5103608;28;20035;-85
2022/07/30 01:40:21;;;;;;;5.25;3.20;;;;;;;;;;5100713;28;20517;-83
2022/07/30 01:42:52;;;;;;;3.95;3.22;;;;;;;;;;5097678;28;20032;-84
2022/07/30 01:45:18;;;;;;;4.97;3.00;;;;;;;;;;5102622;28;20030;-85
2022/07/30 01:47:44;;;;;;;5.35;3.08;;;;;;;;;;5105278;28;20083;-84
2022/07/30 01:50:13;;;;;;;3.35;2.83;;;;;;;;;;5100304;28;20038;-84
2022/07/30 01:52:40;;;;;;;3.13;2.80;;;;;;;;;;5098373;27;20582;-83
2022/07/30 01:55:09;;;;;;;3.25;2.95;;;;;;;;;;5100786;28;20031;-86
2022/07/30 01:57:36;;;;;;;5.85;3.20;;;;;;;;;;5099607;28;20024;-84
2022/07/30 02:00:05;;;;;;;3.42;3.13;;;;;;;;;;5105220;28;20015;-86
2022/07/30 02:02:31;;;;;;;5.40;3.00;;;;;;;;;;5097441;28;20020;-83
2022/07/30 02:04:56;;;;;;;2.67;2.47;;;;;;;;;;5101598;28;20102;-83
2022/07/30 02:07:30;;;;;;;3.13;2.83;;;;;;;;;;5100736;28;20054;-85
2022/07/30 02:10:10;;;;;;;3.55;2.42;;;;;;;;;;5102261;28;20097;-86
2022/07/30 02:12:41;;;;;;;10.13;2.95;;;;;;;;;;5096009;28;20089;-84
2022/07/30 02:15:29;;;;;;;3.72;2.90;;;;;;;;;;5086259;28;20103;-85
2022/07/30 02:17:59;;;;;;;5.38;3.33;;;;;;;;;;5097493;28;20039;-84
2022/07/30 02:20:28;;;;;;;5.57;2.55;;;;;;;;;;5091326;28;20103;-86
2022/07/30 02:22:57;;;;;;;3.53;2.72;;;;;;;;;;5082904;28;20100;-85
2022/07/30 02:25:22;;;;;;;5.35;2.78;;;;;;;;;;5092457;28;20032;-85
2022/07/30 02:27:53;;;;;;;3.03;2.55;;;;;;;;;;5092995;28;20027;-85
2022/07/30 02:30:20;;;;;;;4.65;2.85;;;;;;;;;;5093107;28;20035;-86
2022/07/30 02:32:47;;;;;;;3.13;2.38;;;;;;;;;;5090961;28;20027;-85
2022/07/30 02:35:17;;;;;;;4.97;2.97;;;;;;;;;;5095444;28;20020;-86
2022/07/30 02:37:45;;;;;;;3.10;2.63;;;;;;;;;;5090233;28;20439;-83
2022/07/30 02:40:16;;;;;;;5.07;2.60;;;;;;;;;;5101997;28;20043;-85
2022/07/30 02:42:45;;;;;;;3.90;2.60;;;;;;;;;;5092329;28;20066;-86
2022/07/30 02:45:12;;;;;;;3.90;2.58;;;;;;;;;;5092562;28;20016;-85
2022/07/30 02:47:39;;;;;;;3.58;2.50;;;;;;;;;;5092691;28;20104;-84
2022/07/30 02:50:06;;;;;;;4.55;2.55;;;;;;;;;;5091398;28;20381;-87
2022/07/30 02:52:33;;;;;;;4.07;3.10;;;;;;;;;;5094418;28;20035;-84
2022/07/30 02:55:01;;;;;;;3.55;2.83;;;;;;;;;;5101103;28;20016;-86
2022/07/30 02:57:27;;;;;;;3.30;2.78;;;;;;;;;;5100524;28;20024;-85
2022/07/30 02:59:54;;;;;;;3.78;3.03;;;;;;;;;;5098453;28;20111;-86
2022/07/30 03:02:20;;;;;;;6.18;3.15;;;;;;;;;;5095733;28;20433;-87
2022/07/30 03:04:47;;;;;;;6.70;3.13;;;;;;;;;;5098365;28;20012;-84
2022/07/30 03:07:13;;;;;;;5.28;2.90;;;;;;;;;;5093269;28;20024;-86
2022/07/30 03:09:42;;;;;;;4.20;2.80;;;;;;;;;;5091786;28;20392;-84
2022/07/30 03:12:09;;;;;;;9.88;3.30;;;;;;;;;;5090767;28;20088;-86
2022/07/30 03:14:34;;;;;;;7.45;3.22;;;;;;;;;;5090646;28;20489;-87
2022/07/30 03:17:02;;;;;;;5.40;3.50;;;;;;;;;;5097020;28;20032;-87
2022/07/30 03:19:31;;;;;;;5.00;2.92;;;;;;;;;;5104905;28;20032;-86
2022/07/30 03:21:59;;;;;;;6.28;3.28;;;;;;;;;;5093624;28;20099;-87
2022/07/30 03:24:39;;;;;;;5.38;3.28;;;;;;;;;;5091439;28;20496;-83
2022/07/30 03:27:06;;;;;;;4.70;2.97;;;;;;;;;;5080529;28;20020;-86
2022/07/30 03:29:33;;;;;;;5.32;3.22;;;;;;;;;;5095209;28;20035;-84
2022/07/30 03:31:59;;;;;;;3.13;2.78;;;;;;;;;;5099977;28;20106;-86
2022/07/30 03:34:25;;;;;;;5.00;3.10;;;;;;;;;;5091918;28;20493;-84
2022/07/30 03:36:52;;;;;;;3.28;2.78;;;;;;;;;;5093312;28;20024;-84
2022/07/30 03:39:19;;;;;;;3.67;2.70;;;;;;;;;;5094611;28;20077;-85
2022/07/30 03:41:45;;;;;;;5.43;3.35;;;;;;;;;;5094173;28;20031;-85
2022/07/30 03:44:11;;;;;;;6.00;3.40;;;;;;;;;;5092008;28;20028;-84
2022/07/30 03:46:37;;;;;;;5.97;2.90;;;;;;;;;;5103831;28;20136;-83
2022/07/30 03:49:04;;;;;;;9.82;4.15;;;;;;;;;;5090526;28;20024;-83
2022/07/30 03:51:31;;;;;;;11.30;3.38;;;;;;;;;;5092149;28;20020;-85
2022/07/30 03:53:58;;;;;;;4.50;3.30;;;;;;;;;;5092143;28;20127;-85
2022/07/30 03:56:23;;;;;;;4.65;3.45;;;;;;;;;;5093553;28;20024;-84
2022/07/30 03:58:49;;;;;;;4.10;3.03;;;;;;;;;;5099374;28;20077;-83
2022/07/30 04:01:14;;;;;;;4.38;2.90;;;;;;;;;;5096153;28;20029;-86
2022/07/30 04:03:40;;;;;;;4.00;3.05;;;;;;;;;;5092255;28;20058;-86
2022/07/30 04:06:05;;;;;;;4.47;3.10;;;;;;;;;;5086444;28;20020;-85
2022/07/30 04:08:31;;;;;;;5.22;3.08;;;;;;;;;;5101425;28;20024;-86
2022/07/30 04:10:56;;;;;;;5.97;3.33;;;;;;;;;;5111323;28;20487;-86
2022/07/30 04:13:22;;;;;;;6.47;3.30;;;;;;;;;;5093811;28;20120;-83
2022/07/30 04:16:01;;;;;;;3.58;3.17;;;;;;;;;;5092487;28;20020;-85
2022/07/30 04:18:33;;;;;;;5.70;3.50;;;;;;;;;;5101372;28;20035;-86
2022/07/30 04:21:01;;;;;;;;;;;;;;;;;;5095823;28;20031;-86
2022/07/30 04:23:27;;;;;;;6.53;3.35;;;;;;;;;;5089907;28;20361;-85
2022/07/30 04:25:53;;;;;;;6.15;3.47;;;;;;;;;;5095895;28;20036;-82
2022/07/30 04:28:19;;;;;;;5.53;3.17;;;;;;;;;;5095156;28;20024;-85
2022/07/30 04:30:45;;;;;;;5.32;3.42;;;;;;;;;;5093837;28;20099;-85
2022/07/30 04:33:10;;;;;;;4.25;3.20;;;;;;;;;;5091344;28;20028;-87
2022/07/30 04:35:36;;;;;;;4.40;3.55;;;;;;;;;;5098739;28;20011;-86
2022/07/30 04:38:03;;;;;;;7.55;3.25;;;;;;;;;;5088059;28;20028;-82
2022/07/30 04:40:30;;;;;;;5.50;3.40;;;;;;;;;;5100555;28;20051;-84
2022/07/30 04:42:56;;;;;;;9.93;3.67;;;;;;;;;;5094731;28;20100;-85
2022/07/30 04:45:21;;;;;;;6.90;3.58;;;;;;;;;;5093349;28;20097;-85
2022/07/30 04:47:47;;;;;;;5.38;3.55;;;;;;;;;;5095031;28;20558;-85
2022/07/30 04:50:13;;;;;;;8.38;3.45;;;;;;;;;;5096220;28;20169;-86
2022/07/30 04:52:40;;;;;;;11.60;3.65;;;;;;;;;;5098668;28;20490;-86
2022/07/30 04:55:07;;;;;;;5.95;3.70;;;;;;;;;;5087266;28;20041;-85
2022/07/30 04:57:36;;;;;;;6.65;3.53;;;;;;;;;;5103848;28;20031;-85
2022/07/30 05:00:02;;;;;;;4.97;3.20;;;;;;;;;;5095347;28;20028;-86
2022/07/30 05:02:29;;;;;;;4.55;3.33;;;;;;;;;;5105023;28;20117;-86
2022/07/30 05:04:57;;;;;;;3.95;2.97;;;;;;;;;;5098386;28;20050;-85
2022/07/30 05:07:24;;;;;;;5.95;3.00;;;;;;;;;;5095882;28;20027;-86
2022/07/30 05:09:50;;;;;;;6.35;3.70;;;;;;;;;;5099532;28;20073;-85
2022/07/30 05:12:15;;;;;;;5.40;4.13;;;;;;;;;;5099222;28;20024;-84
2022/07/30 05:14:41;;;;;;;5.82;4.07;;;;;;;;;;5098355;28;20020;-85
2022/07/30 05:17:06;;;;;;;7.70;3.95;;;;;;;;;;5099545;28;20120;-86
2022/07/30 05:19:32;;;;;;;8.02;4.25;;;;;;;;;;5099549;28;20051;-86
2022/07/30 05:21:58;;;;;;;4.28;3.40;;;;;;;;;;5097168;28;20020;-83
2022/07/30 05:24:23;;;;;;;7.18;3.65;;;;;;;;;;5098749;28;20035;-86
2022/07/30 05:26:49;;;;;;;7.63;3.97;;;;;;;;;;5089268;28;20031;-87
2022/07/30 05:29:14;;;;;;;4.82;3.50;;;;;;;;;;5098531;28;20016;-85
2022/07/30 05:31:40;;;;;;;5.88;3.70;;;;;;;;;;5113262;28;20486;-87
2022/07/30 05:34:05;;;;;;;6.28;3.67;;;;;;;;;;5105923;28;20023;-86
2022/07/30 05:36:31;;;;;;;9.73;3.80;;;;;;;;;;5099814;28;20023;-86
2022/07/30 05:38:57;;;;;;;6.75;3.53;;;;;;;;;;5110273;28;20020;-86
2022/07/30 05:41:22;;;;;;;7.13;4.00;;;;;;;;;;5099907;28;20061;-84
2022/07/30 05:43:49;;;;;;;8.20;3.95;;;;;;;;;;5096142;28;20080;-86
2022/07/30 05:46:14;;;;;;;6.00;3.97;;;;;;;;;;5104010;28;20024;-87
2022/07/30 05:48:39;;;;;;;6.07;3.42;;;;;;;;;;5106065;28;20028;-86
2022/07/30 05:51:05;;;;;;;6.63;3.45;;;;;;;;;;5112398;28;20051;-85
2022/07/30 05:53:31;;;;;;;4.53;3.50;;;;;;;;;;5102413;28;20028;-85
2022/07/30 05:55:57;;;;;;;8.23;3.58;;;;;;;;;;5106574;28;20035;-87
2022/07/30 05:58:22;;;;;;;4.13;3.28;;;;;;;;;;5111204;28;20028;-86
2022/07/30 06:00:49;;;;;;;5.70;3.58;;;;;;;;;;5111558;28;20031;-83
2022/07/30 06:03:14;;;;;;;3.97;3.10;;;;;;;;;;5125387;28;20036;-87
2022/07/30 06:05:40;;;;;;;5.93;3.50;;;;;;;;;;5107629;28;20039;-82
2022/07/30 06:08:05;;;;;;;8.13;3.55;;;;;;;;;;5111033;28;20032;-86
2022/07/30 06:10:31;;;;;;;6.35;3.63;;;;;;;;;;5111618;28;20021;-83
2022/07/30 06:12:59;;;;;;;4.63;2.88;;;;;;;;;;5105194;28;20081;-84
2022/07/30 06:15:25;;;;;;;7.97;3.10;;;;;;;;;;5106555;28;20034;-83
2022/07/30 06:17:51;;;;;;;11.82;3.30;;;;;;;;;;5124436;28;20023;-86
2022/07/30 06:20:17;;;;;;;5.32;3.20;;;;;;;;;;5107348;28;20085;-87
2022/07/30 06:22:43;;;;;;;4.40;2.78;;;;;;;;;;5105524;28;20032;-87
2022/07/30 06:25:09;;;;;;;6.55;3.03;;;;;;;;;;5099431;28;20069;-87
2022/07/30 06:27:35;;;;;;;5.25;3.65;;;;;;;;;;5099256;28;20441;-87
2022/07/30 06:30:04;;;;;;;5.13;2.92;;;;;;;;;;5100160;28;20043;-86
2022/07/30 06:32:29;;;;;;;7.43;3.30;;;;;;;;;;5095293;28;20035;-85
2022/07/30 06:34:55;;;;;;;7.38;3.50;;;;;;;;;;5083327;28;20020;-87
2022/07/30 06:37:20;;;;;;;4.50;2.72;;;;;;;;;;5101877;28;20036;-85
2022/07/30 06:39:46;;;;;;;5.18;2.78;;;;;;;;;;5102025;28;20089;-84
2022/07/30 06:42:11;;;;;;;7.32;3.40;;;;;;;;;;5106870;28;20062;-86
2022/07/30 06:44:37;;;;;;;9.45;3.30;;;;;;;;;;5108965;28;20036;-85
2022/07/30 06:47:02;;;;;;;8.90;3.33;;;;;;;;;;5104370;28;20039;-87
2022/07/30 06:49:30;;;;;;;3.65;2.67;;;;;;;;;;5100944;28;20058;-85
2022/07/30 06:51:56;;;;;;;5.03;2.88;;;;;;;;;;5105108;28;20444;-84
2022/07/30 06:54:21;;;;;;;9.80;3.00;;;;;;;;;;5097522;28;20469;-85
2022/07/30 06:56:46;;;;;;;5.95;2.47;;;;;;;;;;5100943;28;20016;-84
2022/07/30 06:59:12;;;;;;;5.43;2.58;;;;;;;;;;5107051;28;20073;-84
2022/07/30 07:01:37;;;;;;;6.82;2.80;;;;;;;;;;5094413;28;20500;-86
2022/07/30 07:04:03;;;;;;;5.30;3.28;;;;;;;;;;5095524;28;20374;-85
2022/07/30 07:06:28;;;;;;;7.40;3.05;;;;;;;;;;5106397;28;20121;-84
2022/07/30 07:08:53;;;;;;;5.88;2.60;;;;;;;;;;5103899;27;20039;-85
2022/07/30 07:11:19;;;;;;;8.20;2.90;;;;;;;;;;5112829;28;20032;-85
2022/07/30 07:13:44;;;;;;;5.05;2.83;;;;;;;;;;5100007;28;20016;-85
2022/07/30 07:16:10;;;;;;;4.30;2.72;;;;;;;;;;5101074;28;20110;-84
2022/07/30 07:18:36;;;;;;;5.63;2.63;;;;;;;;;;5099594;28;20020;-86
2022/07/30 07:21:01;;;;;;;4.55;2.85;;;;;;;;;;5099441;28;20432;-86
2022/07/30 07:23:26;;;;;;;7.00;2.80;;;;;;;;;;5098755;28;20019;-85
2022/07/30 07:25:52;;;;;;;7.60;3.17;;;;;;;;;;5099924;28;20028;-85
2022/07/30 07:28:17;;;;;;;8.40;2.92;;;;;;;;;;5080947;28;20123;-87
2022/07/30 07:30:43;;;;;;;3.58;2.70;;;;;;;;;;5099663;28;20098;-86
2022/07/30 07:33:09;;;;;;;5.35;3.08;;;;;;;;;;5086150;28;20055;-85
2022/07/30 07:35:34;;;;;;;4.90;3.65;;;;;;;;;;5102107;27;20039;-85
2022/07/30 07:38:00;;;;;;;4.90;2.88;;;;;;;;;;5078757;28;20028;-85
2022/07/30 07:40:26;;;;;;;3.95;2.35;;;;;;;;;;5078557;28;20450;-86
2022/07/30 07:42:51;;;;;;;5.05;3.13;;;;;;;;;;5085235;28;20103;-84
2022/07/30 07:45:17;;;;;;;4.82;3.25;;;;;;;;;;5096373;28;20036;-85
2022/07/30 07:47:46;;;;;;;6.10;3.25;;;;;;;;;;5108480;28;20035;-86
2022/07/30 07:50:14;;;;;;;4.72;2.55;;;;;;;;;;5108305;28;20032;-84
2022/07/30 07:52:39;;;;;;;4.68;3.10;;;;;;;;;;5098579;28;20409;-85
2022/07/30 07:55:06;;;;;;;4.70;2.50;;;;;;;;;;5098488;28;20055;-86
2022/07/30 07:57:38;;;;;;;4.03;2.55;;;;;;;;;;5099726;28;20024;-86
2022/07/30 08:00:04;;;;;;;3.80;2.97;;;;;;;;;;5089143;22;20460;-81
2022/07/30 08:02:30;;;;;;;3.45;2.70;;;;;;;;;;5042111;28;20033;-81
2022/07/30 08:04:55;;;;;;;5.15;2.72;;;;;;;;;;5036535;28;20574;-81
2022/07/30 08:07:20;;;;;;;3.38;2.38;;;;;;;;;;5026481;28;20025;-80
2022/07/30 08:09:46;;;;;;;4.38;2.60;;;;;;;;;;5023448;28;20037;-81
2022/07/30 08:12:12;;;;;;;6.93;2.40;;;;;;;;;;5020446;28;20029;-82
2022/07/30 08:14:37;;;;;;;5.03;2.20;;;;;;;;;;5022437;28;20120;-82
2022/07/30 08:17:03;;;;;;;5.38;2.50;;;;;;;;;;5018729;28;20022;-81
2022/07/30 08:19:28;;;;;;;5.18;2.45;;;;;;;;;;5024253;28;20156;-81
2022/07/30 08:21:53;;;;;;;4.90;2.25;;;;;;;;;;5021814;28;20026;-81
2022/07/30 08:24:19;;;;;;;4.45;2.55;;;;;;;;;;5017223;28;20086;-80
2022/07/30 08:26:44;;;;;;;3.33;2.80;;;;;;;;;;5026717;28;20093;-79
2022/07/30 08:29:09;;;;;;;6.05;2.50;;;;;;;;;;5030264;28;20045;-80
2022/07/30 08:31:35;;;;;;;3.17;2.08;;;;;;;;;;5030846;28;20545;-80
2022/07/30 08:34:00;;;;;;;4.32;2.53;;;;;;;;;;5032236;28;20089;-80
2022/07/30 08:36:25;;;;;;;4.90;2.35;;;;;;;;;;5034655;28;20044;-81
2022/07/30 08:38:51;;;;;;;4.28;2.10;;;;;;;;;;5029739;28;20095;-81
2022/07/30 08:41:19;;;;;;;5.43;2.53;;;;;;;;;;5056414;28;20036;-80
2022/07/30 08:43:46;;;;;;;3.53;2.22;;;;;;;;;;5056486;28;20036;-81
2022/07/30 08:46:13;;;;;;;5.20;2.75;;;;;;;;;;5051695;28;20044;-80
2022/07/30 08:48:41;;;;;;;2.75;1.98;;;;;;;;;;5032223;28;20386;-83
2022/07/30 08:51:07;;;;;;;3.35;2.25;;;;;;;;;;5043465;28;20438;-82
2022/07/30 08:53:34;;;;;;;3.97;2.13;;;;;;;;;;5059692;28;20458;-85
2022/07/30 08:56:00;;;;;;;4.53;2.28;;;;;;;;;;5040093;28;20029;-81
2022/07/30 08:58:32;;;;;;;6.32;2.20;;;;;;;;;;5058014;28;20410;-82
2022/07/30 09:00:57;;;;;;;4.72;2.22;;;;;;;;;;5048352;28;20033;-82
2022/07/30 09:03:23;;;;;;;4.22;2.13;;;;;;;;;;5041514;28;20096;-81
2022/07/30 09:05:48;;;;;;;2.40;1.83;;;;;;;;;;5041669;28;20036;-81
2022/07/30 09:08:14;;;;;;;5.40;2.60;;;;;;;;;;5045598;28;20055;-82
2022/07/30 09:10:41;;;;;;;2.72;2.30;;;;;;;;;;5047793;28;20112;-81
2022/07/30 09:13:28;;;;;;;4.38;2.42;;;;;;;;;;5045905;28;20052;-81
2022/07/30 09:15:54;;;;;;;4.13;2.00;;;;;;;;;;5054236;28;20033;-81
2022/07/30 09:18:33;;;;;;;3.97;2.60;;;;;;;;;;5044951;28;20040;-80
2022/07/30 09:21:01;;;;;;;3.13;2.40;;;;;;;;;;5032407;28;20065;-83
2022/07/30 09:23:26;;;;;;;3.80;2.40;;;;;;;;;;5038157;28;20029;-81
2022/07/30 09:25:53;;;;;;;6.53;2.50;;;;;;;;;;5039526;28;20104;-81
2022/07/30 09:28:27;;;;;;;6.35;2.13;;;;;;;;;;5037507;28;20431;-81
2022/07/30 09:30:54;;;;;;;4.15;2.20;;;;;;;;;;5043588;28;20037;-82
2022/07/30 09:33:42;;;;;;;2.78;2.03;;;;;;;;;;5040772;28;20025;-83
2022/07/30 09:36:11;;;;;;;3.47;2.30;;;;;;;;;;5043024;28;20041;-82
2022/07/30 09:38:50;;;;;;;2.97;2.13;;;;;;;;;;5043493;28;20095;-82
2022/07/30 09:41:19;;;;;;;3.97;1.95;;;;;;;;;;5054882;28;20116;-82
2022/07/30 09:43:46;;;;;;;5.20;1.80;;;;;;;;;;5046386;28;20023;-80
2022/07/30 09:46:12;;;;;;;4.47;2.15;;;;;;;;;;5039526;28;20017;-81
2022/07/30 09:48:37;;;;;;;3.33;2.10;;;;;;;;;;5037264;28;20075;-81
2022/07/30 09:51:03;;;;;;;3.78;2.58;;;;;;;;;;5055839;28;20033;-82
2022/07/30 09:53:28;;;;;;;4.95;2.00;;;;;;;;;;5044743;28;20053;-82
2022/07/30 09:55:55;;;;;;;4.53;2.00;;;;;;;;;;5038631;28;20036;-82
2022/07/30 09:58:20;;;;;;;6.38;3.15;;;;;;;;;;5040126;28;20099;-81
2022/07/30 10:00:46;;;;;;;2.60;1.77;;;;;;;;;;5018325;28;20527;-83
2022/07/30 10:03:20;;;;;;;4.38;2.00;;;;;;;;;;5037502;28;20021;-86
2022/07/30 10:05:56;;;;;;;5.35;2.20;;;;;;;;;;5037105;28;20064;-83
2022/07/30 10:08:44;;;;;;;3.47;1.80;;;;;;;;;;5035787;28;20157;-81
2022/07/30 10:11:15;;;;;;;6.43;1.85;;;;;;;;;;5020117;28;20051;-82
2022/07/30 10:13:42;;;;;;;3.85;1.98;;;;;;;;;;5034935;28;20034;-84
2022/07/30 10:16:08;;;;;;;3.42;1.70;;;;;;;;;;5051120;28;20044;-81
2022/07/30 10:18:34;;;;;;;4.65;2.13;;;;;;;;;;5033564;28;20033;-82
2022/07/30 10:21:02;;;;;;;3.97;1.88;;;;;;;;;;5018922;28;20156;-81
2022/07/30 10:23:28;;;;;;;2.60;1.70;;;;;;;;;;5063729;28;20021;-79
2022/07/30 10:26:00;;;;;;;1.52;1.42;;;;;;;;;;5038252;28;20033;-84
2022/07/30 10:28:28;;;;;;;2.38;1.73;;;;;;;;;;5039178;28;20031;-82
2022/07/30 10:30:55;;;;;;;3.78;1.75;;;;;;;;;;5035294;28;20036;-81
2022/07/30 10:33:23;;;;;;;3.80;2.10;;;;;;;;;;5048570;28;20077;-83
2022/07/30 10:35:48;;;;;;;1.88;1.70;;;;;;;;;;5049014;28;20021;-82
2022/07/30 10:38:15;;;;;;;1.83;1.65;;;;;;;;;;5025385;28;20048;-79
2022/07/30 10:40:48;;;;;;;4.25;1.50;;;;;;;;;;5050877;28;20041;-80
2022/07/30 10:43:49;;;;;;;4.15;1.67;;;;;;;;;;5045801;28;20055;-84
2022/07/30 10:46:28;;;;;;;5.75;2.00;;;;;;;;;;5023049;28;20069;-82
2022/07/30 10:48:54;;;;;;;2.65;1.50;;;;;;;;;;5047297;28;20171;-84
2022/07/30 10:51:21;;;;;;;3.10;1.75;;;;;;;;;;5042189;28;20491;-79
2022/07/30 10:53:47;;;;;;;3.80;1.73;;;;;;;;;;5043566;28;20025;-81
2022/07/30 10:56:23;;;;;;;2.30;2.10;;;;;;;;;;5040212;28;20475;-81
2022/07/30 10:59:09;;;;;;;5.28;1.80;;;;;;;;;;5043640;28;20036;-82
2022/07/30 11:01:46;;;;;;;4.85;1.80;;;;;;;;;;5039861;28;20036;-81
2022/07/30 11:04:20;;;;;;;5.13;2.10;;;;;;;;;;5044726;28;20029;-82
2022/07/30 11:06:45;;;;;;;5.30;1.80;;;;;;;;;;5029232;28;20041;-82
2022/07/30 11:09:40;;;;;;;3.08;1.63;;;;;;;;;;5051061;28;20033;-82
2022/07/30 11:12:07;;;;;;;2.17;1.58;;;;;;;;;;5044094;28;20022;-82
2022/07/30 11:14:45;;;;;;;3.88;1.70;;;;;;;;;;5050959;28;20108;-82
2022/07/30 11:17:17;;;;;;;4.95;1.90;;;;;;;;;;5054800;28;20033;-83
2022/07/30 11:20:08;;;;;;;1.50;1.40;;;;;;;;;;5044546;28;20029;-82
2022/07/30 11:22:39;;;;;;;3.08;1.60;;;;;;;;;;5039959;28;20029;-82
2022/07/30 11:25:05;;;;;;;5.15;1.50;;;;;;;;;;5043028;28;20021;-82
2022/07/30 11:27:39;;;;;;;2.08;1.45;;;;;;;;;;5019110;28;20033;-82
2022/07/30 11:30:27;;;;;;;6.88;1.80;;;;;;;;;;5039893;28;20033;-82
2022/07/30 11:33:13;;;;;;;4.28;1.67;;;;;;;;;;5041111;28;20017;-82
2022/07/30 11:35:38;;;;;;;4.07;1.63;;;;;;;;;;5021524;28;20032;-80
2022/07/30 11:38:14;;;;;;;1.67;1.58;;;;;;;;;;5039449;28;20049;-80
2022/07/30 11:40:48;;;;;;;1.50;1.40;;;;;;;;;;5039036;28;20037;-81
2022/07/30 11:43:35;;;;;;;3.28;1.27;;;;;;;;;;5038595;28;20029;-81
2022/07/30 11:46:07;;;;;;;2.00;1.30;;;;;;;;;;5036001;28;20022;-79
2022/07/30 11:48:33;;;;;;;2.80;1.30;;;;;;;;;;5026379;28;20025;-80
2022/07/30 11:50:59;;;;;;;2.65;1.40;;;;;;;;;;5026330;28;20022;-79
2022/07/30 11:53:24;;;;;;;3.75;1.58;;;;;;;;;;5020652;28;20029;-79
2022/07/30 11:55:52;;;;;;;3.45;1.50;;;;;;;;;;5022776;28;20092;-81
2022/07/30 11:58:23;;;;;;;3.47;1.42;;;;;;;;;;5022635;28;20033;-81
2022/07/30 12:00:49;;;;;;;;;;;;;;;;;;5025048;28;20029;-86
2022/07/30 12:03:16;;;;;;;2.75;1.30;;;;;;;;;;5042399;28;20015;-78
2022/07/30 12:05:42;;;;;;;5.63;1.52;;;;;;;;;;5008424;28;20029;-81
2022/07/30 12:08:09;;;;;;;3.80;1.63;;;;;;;;;;5007408;28;20040;-80
2022/07/30 12:10:35;;;;;;;3.83;1.50;;;;;;;;;;5030147;28;20373;-81
2022/07/30 12:13:15;;;;;;;3.88;1.50;;;;;;;;;;5028826;28;20498;-81
2022/07/30 12:15:43;;;;;;;3.05;1.40;;;;;;;;;;5033808;28;20030;-78
2022/07/30 12:18:12;;;;;;;4.10;1.30;;;;;;;;;;5051040;28;20043;-81
2022/07/30 12:20:37;;;;;;;2.90;1.30;;;;;;;;;;5042859;28;20022;-79
2022/07/30 12:23:12;;;;;;;3.50;1.38;;;;;;;;;;5033212;28;20036;-81
2022/07/30 12:25:42;;;;;;;2.65;1.48;;;;;;;;;;5037862;28;20060;-81
2022/07/30 12:28:19;;;;;;;7.18;1.30;;;;;;;;;;5039976;28;20031;-81
2022/07/30 12:30:45;;;;;;;5.50;1.63;;;;;;;;;;5044930;28;20459;-81
2022/07/30 12:33:10;;;;;;;1.50;1.40;;;;;;;;;;5030065;28;20044;-82
2022/07/30 12:35:50;;;;;;;2.17;1.60;;;;;;;;;;5030135;28;20022;-81
2022/07/30 12:38:17;;;;;;;3.67;1.50;;;;;;;;;;5044415;28;20024;-81
2022/07/30 12:41:00;;;;;;;2.72;1.48;;;;;;;;;;5034315;28;20022;-81
2022/07/30 12:43:49;;;;;;;1.50;1.40;;;;;;;;;;5010300;28;20034;-81
2022/07/30 12:46:20;;;;;;;1.65;1.40;;;;;;;;;;5033954;28;20029;-80
2022/07/30 12:48:54;;;;;;;2.90;1.73;;;;;;;;;;5035821;28;20482;-81
2022/07/30 12:51:21;;;;;;;4.95;1.30;;;;;;;;;;5036155;28;20026;-81
2022/07/30 12:53:47;;;;;;;2.38;1.30;;;;;;;;;;5017454;28;20108;-82
2022/07/30 12:56:27;;;;;;;2.38;1.40;;;;;;;;;;5031922;28;20099;-79
2022/07/30 12:58:54;;;;;;;1.67;1.50;;;;;;;;;;5032727;28;20032;-81
2022/07/30 13:01:45;;;;;;;1.30;1.20;;;;;;;;;;5035469;28;20049;-78
2022/07/30 13:04:12;;;;;;;2.88;1.33;;;;;;;;;;5027594;28;20503;-81
2022/07/30 13:06:39;;;;;;;1.35;1.25;;;;;;;;;;5039472;28;20102;-81
2022/07/30 13:09:05;;;;;;;1.38;1.17;;;;;;;;;;5057196;28;20021;-81
2022/07/30 13:11:38;;;;;;;3.38;1.30;;;;;;;;;;5041072;28;20026;-81
2022/07/30 13:14:04;;;;;;;2.05;1.50;;;;;;;;;;5037580;28;20021;-81
2022/07/30 13:16:34;;;;;;;2.33;1.65;;;;;;;;;;5037064;28;20048;-80
2022/07/30 13:19:00;;;;;;;1.73;1.45;;;;;;;;;;5029331;28;20053;-81
2022/07/30 13:21:25;;;;;;;1.98;1.33;;;;;;;;;;5046740;28;20021;-80
2022/07/30 13:23:51;;;;;;;2.08;1.13;;;;;;;;;;5041722;28;20475;-82
2022/07/30 13:26:17;;;;;;;4.15;1.48;;;;;;;;;;5029392;28;20026;-82
2022/07/30 13:28:42;;;;;;;3.08;1.50;;;;;;;;;;5028605;28;20048;-79
2022/07/30 13:31:08;;;;;;;1.40;1.30;;;;;;;;;;5031478;28;20044;-79
2022/07/30 13:33:37;;;;;;;2.08;1.40;;;;;;;;;;5027027;28;20107;-83
2022/07/30 13:36:04;;;;;;;2.70;1.40;;;;;;;;;;5029595;28;20029;-81
2022/07/30 13:38:30;;;;;;;1.52;1.17;;;;;;;;;;5031721;28;20037;-82
2022/07/30 13:40:56;;;;;;;1.73;1.40;;;;;;;;;;5029667;28;20087;-82
2022/07/30 13:43:22;;;;;;;2.25;1.27;;;;;;;;;;5026376;28;20033;-86
2022/07/30 13:45:48;;;;;;;1.88;1.50;;;;;;;;;;5031014;28;20069;-80
2022/07/30 13:48:14;;;;;;;2.45;1.27;;;;;;;;;;5030261;28;20379;-82
2022/07/30 13:50:40;;;;;;;3.45;1.15;;;;;;;;;;5028946;28;20036;-84
2022/07/30 13:53:07;;;;;;;1.13;1.10;;;;;;;;;;5033424;28;20545;-82
2022/07/30 13:55:33;;;;;;;1.52;1.30;;;;;;;;;;5032402;28;20020;-82
2022/07/30 13:57:58;;;;;;;2.50;1.67;;;;;;;;;;5029228;28;20450;-80
2022/07/30 14:00:24;;;;;;;5.78;1.60;;;;;;;;;;5027696;28;20044;-82
2022/07/30 14:02:50;;;;;;;2.25;1.40;;;;;;;;;;5023159;28;20030;-82
2022/07/30 14:05:15;;;;;;;1.52;1.10;;;;;;;;;;5025724;28;20049;-82
2022/07/30 14:07:41;;;;;;;2.92;1.45;;;;;;;;;;5028326;28;20116;-85
2022/07/30 14:10:07;;;;;;;2.20;1.27;;;;;;;;;;5030172;28;20033;-80
2022/07/30 14:12:36;;;;;;;4.65;1.40;;;;;;;;;;5025020;28;20568;-82
2022/07/30 14:15:03;;;;;;;2.67;1.60;;;;;;;;;;5021535;28;20088;-81
2022/07/30 14:17:28;;;;;;;1.85;1.20;;;;;;;;;;5024804;28;20116;-79
2022/07/30 14:19:53;;;;;;;3.35;1.33;;;;;;;;;;5026606;28;20096;-81
2022/07/30 14:22:20;;;;;;;2.40;1.30;;;;;;;;;;5025467;28;20369;-80
2022/07/30 14:24:45;;;;;;;1.52;1.33;;;;;;;;;;5029254;28;20037;-81
2022/07/30 14:27:11;;;;;;;1.95;1.30;;;;;;;;;;5030264;28;20030;-80
2022/07/30 14:29:36;;;;;;;1.33;1.20;;;;;;;;;;5031987;28;20140;-82
2022/07/30 14:32:02;;;;;;;10.40;1.67;;;;;;;;;;5035965;28;20028;-82
2022/07/30 14:34:27;;;;;;;4.65;1.10;;;;;;;;;;5024450;28;20042;-80
2022/07/30 14:36:53;;;;;;;1.40;1.30;;;;;;;;;;5022291;28;20021;-82
2022/07/30 14:39:19;;;;;;;3.17;1.35;;;;;;;;;;5023297;28;20427;-80
2022/07/30 14:41:45;;;;;;;1.20;1.15;;;;;;;;;;5038005;28;20025;-83
2022/07/30 14:44:11;;;;;;;1.00;1.00;;;;;;;;;;5052969;28;20027;-81
2022/07/30 14:46:37;;;;;;;1.35;1.20;;;;;;;;;;5039431;28;20027;-82
2022/07/30 14:49:02;;;;;;;1.23;1.15;;;;;;;;;;5019830;28;20037;-81